sensor_id;sensor_type;location;lat;lon;timestamp;P1;durP1;ratioP1;P2;durP2;ratioP2
49890;SDS011;35780;55.568;37.492;2022-07-04T00:00:22;16.55;;;6.10;;
49890;SDS011;35780;55.568;37.492;2022-07-04T00:02:48;17.30;;;7.78;;
49890;SDS011;35780;55.568;37.492;2022-07-04T00:05:14;17.23;;;6.88;;
49890;SDS011;35780;55.568;37.492;2022-07-04T00:07:41;14.88;;;7.05;;
49890;SDS011;35780;55.568;37.492;2022-07-04T00:10:08;11.80;;;6.10;;
49890;SDS011;35780;55.568;37.492;2022-07-04T00:12:36;11.50;;;6.50;;
49890;SDS011;35780;55.568;37.492;2022-07-04T00:15:02;16.90;;;7.15;;
49890;SDS011;35780;55.568;37.492;2022-07-04T00:17:29;15.55;;;6.32;;
49890;SDS011;35780;55.568;37.492;2022-07-04T00:19:55;13.80;;;7.22;;
49890;SDS011;35780;55.568;37.492;2022-07-04T00:22:21;15.73;;;6.55;;
49890;SDS011;35780;55.568;37.492;2022-07-04T00:24:47;14.10;;;7.18;;
49890;SDS011;35780;55.568;37.492;2022-07-04T00:27:12;14.48;;;6.47;;
49890;SDS011;35780;55.568;37.492;2022-07-04T00:29:38;13.20;;;7.20;;
49890;SDS011;35780;55.568;37.492;2022-07-04T00:32:04;11.77;;;6.55;;
49890;SDS011;35780;55.568;37.492;2022-07-04T00:34:29;16.63;;;6.85;;
49890;SDS011;35780;55.568;37.492;2022-07-04T00:36:55;14.52;;;7.10;;
49890;SDS011;35780;55.568;37.492;2022-07-04T00:39:21;14.23;;;7.88;;
49890;SDS011;35780;55.568;37.492;2022-07-04T00:41:46;18.33;;;7.00;;
49890;SDS011;35780;55.568;37.492;2022-07-04T00:44:12;14.50;;;6.93;;
49890;SDS011;35780;55.568;37.492;2022-07-04T00:46:39;16.55;;;7.43;;
49890;SDS011;35780;55.568;37.492;2022-07-04T00:49:05;16.95;;;7.40;;
49890;SDS011;35780;55.568;37.492;2022-07-04T00:51:32;20.48;;;7.72;;
49890;SDS011;35780;55.568;37.492;2022-07-04T00:53:58;23.77;;;7.75;;
49890;SDS011;35780;55.568;37.492;2022-07-04T00:56:24;19.35;;;7.85;;
49890;SDS011;35780;55.568;37.492;2022-07-04T00:58:50;15.02;;;7.93;;
49890;SDS011;35780;55.568;37.492;2022-07-04T01:01:16;20.40;;;7.70;;
49890;SDS011;35780;55.568;37.492;2022-07-04T01:03:42;18.77;;;7.03;;
49890;SDS011;35780;55.568;37.492;2022-07-04T01:06:08;17.42;;;7.65;;
49890;SDS011;35780;55.568;37.492;2022-07-04T01:08:39;18.52;;;7.03;;
49890;SDS011;35780;55.568;37.492;2022-07-04T01:11:06;25.48;;;7.32;;
49890;SDS011;35780;55.568;37.492;2022-07-04T01:13:31;18.17;;;7.43;;
49890;SDS011;35780;55.568;37.492;2022-07-04T01:15:57;16.67;;;6.32;;
49890;SDS011;35780;55.568;37.492;2022-07-04T01:18:23;15.18;;;6.50;;
49890;SDS011;35780;55.568;37.492;2022-07-04T01:20:49;11.70;;;6.70;;
49890;SDS011;35780;55.568;37.492;2022-07-04T01:23:14;18.33;;;6.93;;
49890;SDS011;35780;55.568;37.492;2022-07-04T01:25:41;12.75;;;6.85;;
49890;SDS011;35780;55.568;37.492;2022-07-04T01:28:07;14.48;;;6.90;;
49890;SDS011;35780;55.568;37.492;2022-07-04T01:30:33;19.17;;;6.55;;
49890;SDS011;35780;55.568;37.492;2022-07-04T01:32:59;17.45;;;7.18;;
49890;SDS011;35780;55.568;37.492;2022-07-04T01:35:25;13.30;;;6.38;;
49890;SDS011;35780;55.568;37.492;2022-07-04T01:37:50;14.68;;;6.55;;
49890;SDS011;35780;55.568;37.492;2022-07-04T01:40:16;9.15;;;5.82;;
49890;SDS011;35780;55.568;37.492;2022-07-04T01:42:42;22.05;;;6.97;;
49890;SDS011;35780;55.568;37.492;2022-07-04T01:45:09;15.50;;;7.18;;
49890;SDS011;35780;55.568;37.492;2022-07-04T01:47:35;17.55;;;6.75;;
49890;SDS011;35780;55.568;37.492;2022-07-04T01:50:02;20.00;;;6.65;;
49890;SDS011;35780;55.568;37.492;2022-07-04T01:52:29;15.32;;;7.65;;
49890;SDS011;35780;55.568;37.492;2022-07-04T01:54:54;18.40;;;6.63;;
49890;SDS011;35780;55.568;37.492;2022-07-04T01:57:20;14.13;;;6.82;;
49890;SDS011;35780;55.568;37.492;2022-07-04T01:59:45;15.45;;;6.05;;
49890;SDS011;35780;55.568;37.492;2022-07-04T02:02:30;14.30;;;5.97;;
49890;SDS011;35780;55.568;37.492;2022-07-04T02:04:56;16.25;;;6.68;;
49890;SDS011;35780;55.568;37.492;2022-07-04T02:07:22;12.20;;;6.63;;
49890;SDS011;35780;55.568;37.492;2022-07-04T02:09:47;15.20;;;6.43;;
49890;SDS011;35780;55.568;37.492;2022-07-04T02:12:13;12.93;;;5.80;;
49890;SDS011;35780;55.568;37.492;2022-07-04T02:14:57;14.68;;;5.53;;
49890;SDS011;35780;55.568;37.492;2022-07-04T02:17:23;14.55;;;5.82;;
49890;SDS011;35780;55.568;37.492;2022-07-04T02:19:48;13.25;;;6.13;;
49890;SDS011;35780;55.568;37.492;2022-07-04T02:22:14;20.02;;;6.80;;
49890;SDS011;35780;55.568;37.492;2022-07-04T02:24:40;12.50;;;6.45;;
49890;SDS011;35780;55.568;37.492;2022-07-04T02:27:06;14.48;;;7.00;;
49890;SDS011;35780;55.568;37.492;2022-07-04T02:29:32;11.40;;;5.93;;
49890;SDS011;35780;55.568;37.492;2022-07-04T02:31:57;12.32;;;5.90;;
49890;SDS011;35780;55.568;37.492;2022-07-04T02:34:23;17.83;;;6.05;;
49890;SDS011;35780;55.568;37.492;2022-07-04T02:36:49;17.08;;;6.47;;
49890;SDS011;35780;55.568;37.492;2022-07-04T02:39:14;13.50;;;6.93;;
49890;SDS011;35780;55.568;37.492;2022-07-04T02:41:40;17.42;;;7.40;;
49890;SDS011;35780;55.568;37.492;2022-07-04T02:44:06;10.32;;;5.75;;
49890;SDS011;35780;55.568;37.492;2022-07-04T02:46:32;14.90;;;6.07;;
49890;SDS011;35780;55.568;37.492;2022-07-04T02:48:58;14.07;;;6.22;;
49890;SDS011;35780;55.568;37.492;2022-07-04T02:51:24;13.65;;;6.32;;
49890;SDS011;35780;55.568;37.492;2022-07-04T02:53:50;17.10;;;6.18;;
49890;SDS011;35780;55.568;37.492;2022-07-04T02:56:16;16.58;;;6.40;;
49890;SDS011;35780;55.568;37.492;2022-07-04T02:58:42;12.30;;;6.57;;
49890;SDS011;35780;55.568;37.492;2022-07-04T03:01:07;18.75;;;6.47;;
49890;SDS011;35780;55.568;37.492;2022-07-04T03:03:33;19.00;;;6.32;;
49890;SDS011;35780;55.568;37.492;2022-07-04T03:05:59;16.58;;;6.25;;
49890;SDS011;35780;55.568;37.492;2022-07-04T03:08:25;16.48;;;7.03;;
49890;SDS011;35780;55.568;37.492;2022-07-04T03:10:51;16.25;;;7.00;;
49890;SDS011;35780;55.568;37.492;2022-07-04T03:13:17;12.63;;;6.18;;
49890;SDS011;35780;55.568;37.492;2022-07-04T03:15:42;14.30;;;5.72;;
49890;SDS011;35780;55.568;37.492;2022-07-04T03:18:08;19.02;;;6.30;;
49890;SDS011;35780;55.568;37.492;2022-07-04T03:20:34;16.30;;;6.40;;
49890;SDS011;35780;55.568;37.492;2022-07-04T03:22:59;16.48;;;7.55;;
49890;SDS011;35780;55.568;37.492;2022-07-04T03:25:25;17.15;;;6.35;;
49890;SDS011;35780;55.568;37.492;2022-07-04T03:27:51;13.85;;;6.03;;
49890;SDS011;35780;55.568;37.492;2022-07-04T03:30:17;19.88;;;7.00;;
49890;SDS011;35780;55.568;37.492;2022-07-04T03:32:42;16.33;;;6.78;;
49890;SDS011;35780;55.568;37.492;2022-07-04T03:35:08;13.73;;;6.82;;
49890;SDS011;35780;55.568;37.492;2022-07-04T03:37:34;14.93;;;6.40;;
49890;SDS011;35780;55.568;37.492;2022-07-04T03:39:59;14.68;;;6.57;;
49890;SDS011;35780;55.568;37.492;2022-07-04T03:42:25;19.30;;;6.50;;
49890;SDS011;35780;55.568;37.492;2022-07-04T03:44:51;16.77;;;6.53;;
49890;SDS011;35780;55.568;37.492;2022-07-04T03:47:17;14.05;;;6.07;;
49890;SDS011;35780;55.568;37.492;2022-07-04T03:49:43;17.77;;;7.47;;
49890;SDS011;35780;55.568;37.492;2022-07-04T03:52:08;18.20;;;7.63;;
49890;SDS011;35780;55.568;37.492;2022-07-04T03:54:34;30.25;;;8.57;;
49890;SDS011;35780;55.568;37.492;2022-07-04T03:56:59;17.05;;;7.80;;
49890;SDS011;35780;55.568;37.492;2022-07-04T03:59:25;16.85;;;7.75;;
49890;SDS011;35780;55.568;37.492;2022-07-04T04:01:50;20.30;;;6.78;;
49890;SDS011;35780;55.568;37.492;2022-07-04T04:04:16;20.58;;;7.40;;
49890;SDS011;35780;55.568;37.492;2022-07-04T04:07:00;12.55;;;6.97;;
49890;SDS011;35780;55.568;37.492;2022-07-04T04:09:26;15.48;;;6.70;;
49890;SDS011;35780;55.568;37.492;2022-07-04T04:11:51;15.65;;;8.23;;
49890;SDS011;35780;55.568;37.492;2022-07-04T04:14:17;17.30;;;7.20;;
49890;SDS011;35780;55.568;37.492;2022-07-04T04:16:43;21.45;;;7.05;;
49890;SDS011;35780;55.568;37.492;2022-07-04T04:19:09;16.80;;;7.00;;
49890;SDS011;35780;55.568;37.492;2022-07-04T04:21:35;14.85;;;6.82;;
49890;SDS011;35780;55.568;37.492;2022-07-04T04:24:01;18.05;;;7.13;;
49890;SDS011;35780;55.568;37.492;2022-07-04T04:26:27;14.27;;;6.68;;
49890;SDS011;35780;55.568;37.492;2022-07-04T04:28:53;12.27;;;6.65;;
49890;SDS011;35780;55.568;37.492;2022-07-04T04:31:18;19.98;;;6.50;;
49890;SDS011;35780;55.568;37.492;2022-07-04T04:33:44;13.60;;;6.80;;
49890;SDS011;35780;55.568;37.492;2022-07-04T04:36:09;16.73;;;7.03;;
49890;SDS011;35780;55.568;37.492;2022-07-04T04:38:35;8.15;;;6.30;;
49890;SDS011;35780;55.568;37.492;2022-07-04T04:41:01;14.30;;;5.60;;
49890;SDS011;35780;55.568;37.492;2022-07-04T04:43:27;15.30;;;6.28;;
49890;SDS011;35780;55.568;37.492;2022-07-04T04:45:53;14.65;;;6.35;;
49890;SDS011;35780;55.568;37.492;2022-07-04T04:48:18;11.23;;;5.63;;
49890;SDS011;35780;55.568;37.492;2022-07-04T04:50:44;13.57;;;5.85;;
49890;SDS011;35780;55.568;37.492;2022-07-04T04:53:11;16.35;;;5.90;;
49890;SDS011;35780;55.568;37.492;2022-07-04T04:55:36;17.08;;;5.72;;
49890;SDS011;35780;55.568;37.492;2022-07-04T04:58:02;14.07;;;6.47;;
49890;SDS011;35780;55.568;37.492;2022-07-04T05:00:28;9.50;;;5.63;;
49890;SDS011;35780;55.568;37.492;2022-07-04T05:02:53;17.35;;;5.90;;
49890;SDS011;35780;55.568;37.492;2022-07-04T05:05:19;11.05;;;5.63;;
49890;SDS011;35780;55.568;37.492;2022-07-04T05:07:44;8.68;;;5.93;;
49890;SDS011;35780;55.568;37.492;2022-07-04T05:10:10;14.32;;;6.30;;
49890;SDS011;35780;55.568;37.492;2022-07-04T05:12:36;11.73;;;5.80;;
49890;SDS011;35780;55.568;37.492;2022-07-04T05:15:01;9.60;;;5.65;;
49890;SDS011;35780;55.568;37.492;2022-07-04T05:17:29;10.13;;;5.93;;
49890;SDS011;35780;55.568;37.492;2022-07-04T05:19:55;10.82;;;5.88;;
49890;SDS011;35780;55.568;37.492;2022-07-04T05:22:20;8.98;;;5.93;;
49890;SDS011;35780;55.568;37.492;2022-07-04T05:24:46;9.27;;;5.88;;
49890;SDS011;35780;55.568;37.492;2022-07-04T05:27:11;9.27;;;6.50;;
49890;SDS011;35780;55.568;37.492;2022-07-04T05:29:37;9.63;;;5.90;;
49890;SDS011;35780;55.568;37.492;2022-07-04T05:32:03;10.50;;;5.22;;
49890;SDS011;35780;55.568;37.492;2022-07-04T05:34:32;12.95;;;5.60;;
49890;SDS011;35780;55.568;37.492;2022-07-04T05:36:58;9.63;;;5.63;;
49890;SDS011;35780;55.568;37.492;2022-07-04T05:39:24;13.48;;;5.85;;
49890;SDS011;35780;55.568;37.492;2022-07-04T05:41:49;7.45;;;5.50;;
49890;SDS011;35780;55.568;37.492;2022-07-04T05:44:15;8.82;;;5.80;;
49890;SDS011;35780;55.568;37.492;2022-07-04T05:46:40;9.90;;;5.60;;
49890;SDS011;35780;55.568;37.492;2022-07-04T05:49:06;9.00;;;5.90;;
49890;SDS011;35780;55.568;37.492;2022-07-04T05:51:31;14.68;;;6.38;;
49890;SDS011;35780;55.568;37.492;2022-07-04T05:53:57;10.73;;;6.07;;
49890;SDS011;35780;55.568;37.492;2022-07-04T05:56:22;9.50;;;5.32;;
49890;SDS011;35780;55.568;37.492;2022-07-04T05:58:48;10.07;;;6.07;;
49890;SDS011;35780;55.568;37.492;2022-07-04T06:01:14;14.50;;;6.50;;
49890;SDS011;35780;55.568;37.492;2022-07-04T06:03:39;8.02;;;4.93;;
49890;SDS011;35780;55.568;37.492;2022-07-04T06:06:06;8.90;;;5.40;;
49890;SDS011;35780;55.568;37.492;2022-07-04T06:08:31;12.77;;;5.85;;
49890;SDS011;35780;55.568;37.492;2022-07-04T06:10:57;10.88;;;5.68;;
49890;SDS011;35780;55.568;37.492;2022-07-04T06:13:23;8.20;;;5.47;;
49890;SDS011;35780;55.568;37.492;2022-07-04T06:15:49;8.15;;;5.95;;
49890;SDS011;35780;55.568;37.492;2022-07-04T06:18:15;9.73;;;5.80;;
49890;SDS011;35780;55.568;37.492;2022-07-04T06:20:41;16.58;;;5.43;;
49890;SDS011;35780;55.568;37.492;2022-07-04T06:23:06;7.43;;;5.00;;
49890;SDS011;35780;55.568;37.492;2022-07-04T06:25:33;8.50;;;5.32;;
49890;SDS011;35780;55.568;37.492;2022-07-04T06:27:59;5.72;;;4.63;;
49890;SDS011;35780;55.568;37.492;2022-07-04T06:30:25;12.05;;;5.00;;
49890;SDS011;35780;55.568;37.492;2022-07-04T06:32:54;11.07;;;5.30;;
49890;SDS011;35780;55.568;37.492;2022-07-04T06:35:25;10.02;;;4.60;;
49890;SDS011;35780;55.568;37.492;2022-07-04T06:38:13;9.20;;;4.70;;
49890;SDS011;35780;55.568;37.492;2022-07-04T06:40:58;6.38;;;4.55;;
49890;SDS011;35780;55.568;37.492;2022-07-04T06:43:24;10.90;;;5.30;;
49890;SDS011;35780;55.568;37.492;2022-07-04T06:45:50;8.25;;;4.95;;
49890;SDS011;35780;55.568;37.492;2022-07-04T06:48:16;11.60;;;5.40;;
49890;SDS011;35780;55.568;37.492;2022-07-04T06:50:43;10.70;;;5.95;;
49890;SDS011;35780;55.568;37.492;2022-07-04T06:53:08;6.60;;;5.25;;
49890;SDS011;35780;55.568;37.492;2022-07-04T06:55:38;8.32;;;5.80;;
49890;SDS011;35780;55.568;37.492;2022-07-04T06:58:05;9.60;;;5.57;;
49890;SDS011;35780;55.568;37.492;2022-07-04T07:00:32;12.75;;;5.90;;
49890;SDS011;35780;55.568;37.492;2022-07-04T07:02:58;6.90;;;5.82;;
49890;SDS011;35780;55.568;37.492;2022-07-04T07:05:28;13.77;;;6.55;;
49890;SDS011;35780;55.568;37.492;2022-07-04T07:07:54;8.68;;;5.20;;
49890;SDS011;35780;55.568;37.492;2022-07-04T07:10:20;6.35;;;5.25;;
49890;SDS011;35780;55.568;37.492;2022-07-04T07:12:46;9.43;;;5.60;;
49890;SDS011;35780;55.568;37.492;2022-07-04T07:15:11;9.45;;;5.72;;
49890;SDS011;35780;55.568;37.492;2022-07-04T07:17:38;8.70;;;5.07;;
49890;SDS011;35780;55.568;37.492;2022-07-04T07:20:07;13.55;;;5.72;;
49890;SDS011;35780;55.568;37.492;2022-07-04T07:22:33;9.75;;;5.05;;
49890;SDS011;35780;55.568;37.492;2022-07-04T07:24:59;8.73;;;5.68;;
49890;SDS011;35780;55.568;37.492;2022-07-04T07:27:24;10.63;;;5.65;;
49890;SDS011;35780;55.568;37.492;2022-07-04T07:29:50;6.93;;;5.03;;
49890;SDS011;35780;55.568;37.492;2022-07-04T07:32:16;6.53;;;4.78;;
49890;SDS011;35780;55.568;37.492;2022-07-04T07:34:42;8.55;;;5.20;;
49890;SDS011;35780;55.568;37.492;2022-07-04T07:37:08;9.38;;;5.30;;
49890;SDS011;35780;55.568;37.492;2022-07-04T07:39:34;6.60;;;4.80;;
49890;SDS011;35780;55.568;37.492;2022-07-04T07:42:00;12.40;;;5.10;;
49890;SDS011;35780;55.568;37.492;2022-07-04T07:44:25;10.05;;;5.43;;
49890;SDS011;35780;55.568;37.492;2022-07-04T07:46:51;10.95;;;5.30;;
49890;SDS011;35780;55.568;37.492;2022-07-04T07:49:17;8.68;;;4.82;;
49890;SDS011;35780;55.568;37.492;2022-07-04T07:51:42;9.70;;;4.95;;
49890;SDS011;35780;55.568;37.492;2022-07-04T07:54:08;7.10;;;4.70;;
49890;SDS011;35780;55.568;37.492;2022-07-04T07:56:34;6.50;;;4.47;;
49890;SDS011;35780;55.568;37.492;2022-07-04T07:58:59;7.63;;;5.18;;
49890;SDS011;35780;55.568;37.492;2022-07-04T08:01:25;8.73;;;4.50;;
49890;SDS011;35780;55.568;37.492;2022-07-04T08:03:50;14.10;;;4.90;;
49890;SDS011;35780;55.568;37.492;2022-07-04T08:06:35;7.60;;;4.65;;
49890;SDS011;35780;55.568;37.492;2022-07-04T08:09:01;7.57;;;4.68;;
49890;SDS011;35780;55.568;37.492;2022-07-04T08:11:27;7.20;;;4.60;;
49890;SDS011;35780;55.568;37.492;2022-07-04T08:13:52;11.10;;;4.78;;
49890;SDS011;35780;55.568;37.492;2022-07-04T08:16:18;18.15;;;5.68;;
49890;SDS011;35780;55.568;37.492;2022-07-04T08:18:44;8.48;;;5.22;;
49890;SDS011;35780;55.568;37.492;2022-07-04T08:21:09;11.15;;;5.20;;
49890;SDS011;35780;55.568;37.492;2022-07-04T08:23:35;8.10;;;4.88;;
49890;SDS011;35780;55.568;37.492;2022-07-04T08:26:01;8.40;;;4.50;;
49890;SDS011;35780;55.568;37.492;2022-07-04T08:28:28;14.80;;;4.93;;
49890;SDS011;35780;55.568;37.492;2022-07-04T08:30:54;12.52;;;4.95;;
49890;SDS011;35780;55.568;37.492;2022-07-04T08:33:21;15.20;;;5.15;;
49890;SDS011;35780;55.568;37.492;2022-07-04T08:35:47;11.48;;;4.78;;
49890;SDS011;35780;55.568;37.492;2022-07-04T08:38:13;7.50;;;4.82;;
49890;SDS011;35780;55.568;37.492;2022-07-04T08:40:39;6.07;;;4.82;;
49890;SDS011;35780;55.568;37.492;2022-07-04T08:43:05;10.15;;;5.03;;
49890;SDS011;35780;55.568;37.492;2022-07-04T08:45:31;6.63;;;4.63;;
49890;SDS011;35780;55.568;37.492;2022-07-04T08:48:04;10.18;;;4.85;;
49890;SDS011;35780;55.568;37.492;2022-07-04T08:50:32;15.95;;;5.40;;
49890;SDS011;35780;55.568;37.492;2022-07-04T08:53:00;7.72;;;4.53;;
49890;SDS011;35780;55.568;37.492;2022-07-04T08:55:28;9.52;;;5.57;;
49890;SDS011;35780;55.568;37.492;2022-07-04T08:58:13;8.50;;;5.00;;
49890;SDS011;35780;55.568;37.492;2022-07-04T09:00:54;6.22;;;4.88;;
49890;SDS011;35780;55.568;37.492;2022-07-04T09:03:23;18.60;;;4.93;;
49890;SDS011;35780;55.568;37.492;2022-07-04T09:05:50;17.38;;;5.25;;
49890;SDS011;35780;55.568;37.492;2022-07-04T09:08:16;9.82;;;5.30;;
49890;SDS011;35780;55.568;37.492;2022-07-04T09:10:42;9.48;;;5.30;;
49890;SDS011;35780;55.568;37.492;2022-07-04T09:13:08;7.80;;;5.13;;
49890;SDS011;35780;55.568;37.492;2022-07-04T09:15:35;10.38;;;5.25;;
49890;SDS011;35780;55.568;37.492;2022-07-04T09:18:02;7.53;;;4.85;;
49890;SDS011;35780;55.568;37.492;2022-07-04T09:20:29;7.47;;;4.85;;
49890;SDS011;35780;55.568;37.492;2022-07-04T09:22:55;8.82;;;5.25;;
49890;SDS011;35780;55.568;37.492;2022-07-04T09:25:22;7.93;;;5.18;;
49890;SDS011;35780;55.568;37.492;2022-07-04T09:27:55;8.00;;;5.13;;
49890;SDS011;35780;55.568;37.492;2022-07-04T09:30:25;6.32;;;4.80;;
49890;SDS011;35780;55.568;37.492;2022-07-04T09:32:53;10.20;;;5.10;;
49890;SDS011;35780;55.568;37.492;2022-07-04T09:35:25;8.25;;;5.45;;
49890;SDS011;35780;55.568;37.492;2022-07-04T09:37:53;9.98;;;4.97;;
49890;SDS011;35780;55.568;37.492;2022-07-04T09:40:30;6.05;;;5.28;;
49890;SDS011;35780;55.568;37.492;2022-07-04T09:42:58;12.80;;;5.25;;
49890;SDS011;35780;55.568;37.492;2022-07-04T09:45:25;7.10;;;5.20;;
49890;SDS011;35780;55.568;37.492;2022-07-04T09:47:55;11.00;;;6.05;;
49890;SDS011;35780;55.568;37.492;2022-07-04T09:50:23;8.15;;;4.95;;
49890;SDS011;35780;55.568;37.492;2022-07-04T09:52:51;9.88;;;5.78;;
49890;SDS011;35780;55.568;37.492;2022-07-04T09:55:34;8.27;;;5.30;;
49890;SDS011;35780;55.568;37.492;2022-07-04T09:58:12;10.43;;;5.50;;
49890;SDS011;35780;55.568;37.492;2022-07-04T10:05:47;14.68;;;6.10;;
49890;SDS011;35780;55.568;37.492;2022-07-04T10:08:27;8.88;;;5.93;;
49890;SDS011;35780;55.568;37.492;2022-07-04T10:10:57;16.75;;;7.40;;
49890;SDS011;35780;55.568;37.492;2022-07-04T10:13:23;11.00;;;7.10;;
49890;SDS011;35780;55.568;37.492;2022-07-04T10:15:49;7.50;;;6.18;;
49890;SDS011;35780;55.568;37.492;2022-07-04T10:18:14;10.48;;;6.72;;
49890;SDS011;35780;55.568;37.492;2022-07-04T10:20:43;17.65;;;7.05;;
49890;SDS011;35780;55.568;37.492;2022-07-04T10:23:10;13.35;;;7.28;;
49890;SDS011;35780;55.568;37.492;2022-07-04T10:25:36;9.18;;;7.00;;
49890;SDS011;35780;55.568;37.492;2022-07-04T10:28:02;11.23;;;7.38;;
49890;SDS011;35780;55.568;37.492;2022-07-04T10:30:28;14.48;;;6.60;;
49890;SDS011;35780;55.568;37.492;2022-07-04T10:32:56;7.53;;;6.28;;
49890;SDS011;35780;55.568;37.492;2022-07-04T10:38:11;7.80;;;6.53;;
49890;SDS011;35780;55.568;37.492;2022-07-04T10:40:40;9.20;;;6.97;;
49890;SDS011;35780;55.568;37.492;2022-07-04T10:48:52;9.75;;;6.20;;
49890;SDS011;35780;55.568;37.492;2022-07-04T10:51:44;7.90;;;6.72;;
49890;SDS011;35780;55.568;37.492;2022-07-04T10:54:12;10.38;;;6.45;;
49890;SDS011;35780;55.568;37.492;2022-07-04T10:56:45;7.68;;;6.40;;
49890;SDS011;35780;55.568;37.492;2022-07-04T10:59:16;6.45;;;5.43;;
49890;SDS011;35780;55.568;37.492;2022-07-04T11:01:47;9.18;;;5.65;;
49890;SDS011;35780;55.568;37.492;2022-07-04T11:17:55;6.88;;;5.60;;
49890;SDS011;35780;55.568;37.492;2022-07-04T11:20:27;10.73;;;6.45;;
49890;SDS011;35780;55.568;37.492;2022-07-04T11:23:03;8.05;;;5.47;;
49890;SDS011;35780;55.568;37.492;2022-07-04T11:25:36;6.40;;;5.80;;
49890;SDS011;35780;55.568;37.492;2022-07-04T11:28:21;6.40;;;5.80;;
49890;SDS011;35780;55.568;37.492;2022-07-04T11:31:00;9.10;;;6.05;;
49890;SDS011;35780;55.568;37.492;2022-07-04T11:33:27;7.88;;;5.75;;
49890;SDS011;35780;55.568;37.492;2022-07-04T11:36:08;8.07;;;6.47;;
49890;SDS011;35780;55.568;37.492;2022-07-04T11:41:12;9.57;;;5.88;;
49890;SDS011;35780;55.568;37.492;2022-07-04T11:43:57;9.73;;;6.18;;
49890;SDS011;35780;55.568;37.492;2022-07-04T11:46:41;8.85;;;5.75;;
49890;SDS011;35780;55.568;37.492;2022-07-04T11:49:11;8.27;;;5.13;;
49890;SDS011;35780;55.568;37.492;2022-07-04T11:51:46;8.77;;;5.30;;
49890;SDS011;35780;55.568;37.492;2022-07-04T11:54:12;8.90;;;5.60;;
49890;SDS011;35780;55.568;37.492;2022-07-04T11:56:38;7.50;;;5.35;;
49890;SDS011;35780;55.568;37.492;2022-07-04T11:59:11;6.30;;;5.53;;
49890;SDS011;35780;55.568;37.492;2022-07-04T12:01:38;13.35;;;5.95;;
49890;SDS011;35780;55.568;37.492;2022-07-04T12:04:15;7.22;;;5.20;;
49890;SDS011;35780;55.568;37.492;2022-07-04T12:06:45;7.35;;;5.00;;
49890;SDS011;35780;55.568;37.492;2022-07-04T12:09:12;9.40;;;5.53;;
49890;SDS011;35780;55.568;37.492;2022-07-04T12:11:51;8.35;;;5.38;;
49890;SDS011;35780;55.568;37.492;2022-07-04T12:14:17;6.75;;;6.03;;
49890;SDS011;35780;55.568;37.492;2022-07-04T12:16:42;6.57;;;5.53;;
49890;SDS011;35780;55.568;37.492;2022-07-04T12:19:09;5.90;;;5.18;;
49890;SDS011;35780;55.568;37.492;2022-07-04T12:21:35;7.55;;;4.97;;
49890;SDS011;35780;55.568;37.492;2022-07-04T12:24:01;9.60;;;5.32;;
49890;SDS011;35780;55.568;37.492;2022-07-04T12:26:30;8.25;;;5.70;;
49890;SDS011;35780;55.568;37.492;2022-07-04T12:28:56;14.95;;;5.55;;
49890;SDS011;35780;55.568;37.492;2022-07-04T12:34:23;13.50;;;6.07;;
49890;SDS011;35780;55.568;37.492;2022-07-04T12:36:49;9.70;;;7.10;;
49890;SDS011;35780;55.568;37.492;2022-07-04T12:39:31;6.28;;;5.60;;
49890;SDS011;35780;55.568;37.492;2022-07-04T12:42:06;11.82;;;6.80;;
49890;SDS011;35780;55.568;37.492;2022-07-04T12:44:32;13.57;;;5.70;;
49890;SDS011;35780;55.568;37.492;2022-07-04T12:46:58;6.57;;;5.55;;
49890;SDS011;35780;55.568;37.492;2022-07-04T12:49:24;11.25;;;5.07;;
49890;SDS011;35780;55.568;37.492;2022-07-04T12:51:49;8.88;;;5.43;;
49890;SDS011;35780;55.568;37.492;2022-07-04T12:54:15;7.88;;;5.40;;
49890;SDS011;35780;55.568;37.492;2022-07-04T12:56:42;9.07;;;5.50;;
49890;SDS011;35780;55.568;37.492;2022-07-04T12:59:15;10.18;;;5.50;;
49890;SDS011;35780;55.568;37.492;2022-07-04T13:01:43;8.07;;;5.63;;
49890;SDS011;35780;55.568;37.492;2022-07-04T13:04:10;7.35;;;5.65;;
49890;SDS011;35780;55.568;37.492;2022-07-04T13:06:36;9.50;;;5.75;;
49890;SDS011;35780;55.568;37.492;2022-07-04T13:09:03;6.95;;;5.45;;
49890;SDS011;35780;55.568;37.492;2022-07-04T13:11:29;10.23;;;5.15;;
49890;SDS011;35780;55.568;37.492;2022-07-04T13:14:13;11.38;;;6.18;;
49890;SDS011;35780;55.568;37.492;2022-07-04T13:16:39;6.32;;;5.72;;
49890;SDS011;35780;55.568;37.492;2022-07-04T13:19:04;9.63;;;6.70;;
49890;SDS011;35780;55.568;37.492;2022-07-04T13:21:30;9.10;;;5.88;;
49890;SDS011;35780;55.568;37.492;2022-07-04T13:23:55;11.88;;;5.63;;
49890;SDS011;35780;55.568;37.492;2022-07-04T13:26:21;8.52;;;5.72;;
49890;SDS011;35780;55.568;37.492;2022-07-04T13:28:47;10.18;;;5.78;;
49890;SDS011;35780;55.568;37.492;2022-07-04T13:31:13;7.82;;;5.75;;
49890;SDS011;35780;55.568;37.492;2022-07-04T13:33:39;9.02;;;5.55;;
49890;SDS011;35780;55.568;37.492;2022-07-04T13:36:05;7.97;;;6.18;;
49890;SDS011;35780;55.568;37.492;2022-07-04T13:38:31;6.63;;;5.43;;
49890;SDS011;35780;55.568;37.492;2022-07-04T13:40:56;6.80;;;5.75;;
49890;SDS011;35780;55.568;37.492;2022-07-04T13:43:23;14.18;;;7.25;;
49890;SDS011;35780;55.568;37.492;2022-07-04T13:45:49;7.03;;;5.53;;
49890;SDS011;35780;55.568;37.492;2022-07-04T13:48:15;8.10;;;5.90;;
49890;SDS011;35780;55.568;37.492;2022-07-04T13:50:40;8.07;;;5.25;;
49890;SDS011;35780;55.568;37.492;2022-07-04T13:53:06;8.43;;;5.30;;
49890;SDS011;35780;55.568;37.492;2022-07-04T13:55:33;12.05;;;5.63;;
49890;SDS011;35780;55.568;37.492;2022-07-04T13:58:02;11.32;;;5.57;;
49890;SDS011;35780;55.568;37.492;2022-07-04T14:00:32;10.88;;;5.45;;
49890;SDS011;35780;55.568;37.492;2022-07-04T14:02:58;11.27;;;5.22;;
49890;SDS011;35780;55.568;37.492;2022-07-04T14:05:23;10.60;;;6.32;;
49890;SDS011;35780;55.568;37.492;2022-07-04T14:07:52;6.63;;;5.47;;
49890;SDS011;35780;55.568;37.492;2022-07-04T14:10:18;6.25;;;4.90;;
49890;SDS011;35780;55.568;37.492;2022-07-04T14:12:44;6.07;;;5.38;;
49890;SDS011;35780;55.568;37.492;2022-07-04T14:15:10;5.50;;;4.95;;
49890;SDS011;35780;55.568;37.492;2022-07-04T14:17:36;7.93;;;5.22;;
49890;SDS011;35780;55.568;37.492;2022-07-04T14:20:03;9.65;;;5.28;;
49890;SDS011;35780;55.568;37.492;2022-07-04T14:22:30;9.55;;;6.00;;
49890;SDS011;35780;55.568;37.492;2022-07-04T14:24:55;11.50;;;5.68;;
49890;SDS011;35780;55.568;37.492;2022-07-04T14:27:21;7.00;;;5.70;;
49890;SDS011;35780;55.568;37.492;2022-07-04T14:29:46;7.13;;;5.25;;
49890;SDS011;35780;55.568;37.492;2022-07-04T14:32:12;11.07;;;5.60;;
49890;SDS011;35780;55.568;37.492;2022-07-04T14:34:38;9.88;;;5.72;;
49890;SDS011;35780;55.568;37.492;2022-07-04T14:37:03;8.80;;;5.05;;
49890;SDS011;35780;55.568;37.492;2022-07-04T14:39:29;7.05;;;5.30;;
49890;SDS011;35780;55.568;37.492;2022-07-04T14:41:55;9.10;;;4.72;;
49890;SDS011;35780;55.568;37.492;2022-07-04T14:44:21;9.00;;;5.28;;
49890;SDS011;35780;55.568;37.492;2022-07-04T14:46:46;11.45;;;6.63;;
49890;SDS011;35780;55.568;37.492;2022-07-04T14:49:12;10.93;;;4.95;;
49890;SDS011;35780;55.568;37.492;2022-07-04T14:51:37;12.68;;;5.22;;
49890;SDS011;35780;55.568;37.492;2022-07-04T14:54:05;11.60;;;5.18;;
49890;SDS011;35780;55.568;37.492;2022-07-04T14:56:32;14.20;;;5.57;;
49890;SDS011;35780;55.568;37.492;2022-07-04T14:58:58;7.40;;;5.38;;